MNL weather

Public forecast

Using degrees Celsius for public forecast. Weather courtesy of forecast.io.

Current aviation weather report (METAR) for Ninoy Aquino International Airport

Retrieved 2020/08/11 06:00 UTC (56 minutes ago):

RPLL 110600Z AUTO 08010KT 050V110 9999 FEW059/// BKN230/// 29/23 Q1010

Aviation forecast (TAF) for Ninoy Aquino International Airport

Retrieved 2020/08/11 06:22 UTC (34 minutes ago):

TAF RPLL 110500Z 1106/1212 10008KT 9999 FEW022 SCT100 BKN300 TX31/11006Z TN25/1121Z TEMPO 1106/1112 VRB05KT 9000 -SHRA FEW020CB SCT020 BKN100 TEMPO 1112/1118 22012KT FEW020CB FEW022 BKN100